Time;durP1;ratioP1;P1;durP2;ratioP2;P2;SDS_P1;SDS_P2;PMS_P1;PMS_P2;Temp;Humidity;BMP_temperature;BMP_pressure;BME280_temperature;BME280_humidity;BME280_pressure;Samples;Min_cycle;Max_cycle;Signal;HPM_P1;HPM_P2
2022/01/10 00:00:39;;;;;;;12.33;4.63;;;5.60;1.00;6.30;99894.00;;;;5032791;28;20483;-81
2022/01/10 00:03:08;;;;;;;10.90;4.50;;;5.60;1.00;6.30;99901.00;;;;5023959;28;20451;-81
2022/01/10 00:05:37;;;;;;;8.57;5.20;;;5.80;1.00;6.30;67640.00;;;;5023860;28;20441;-80
2022/01/10 00:08:06;;;;;;;9.70;4.40;;;5.60;1.00;217.30;159367.00;;;;5021169;28;20464;-80
2022/01/10 00:10:35;;;;;;;13.13;5.17;;;5.60;1.00;6.30;99920.00;;;;5028453;28;20472;-80
2022/01/10 00:13:04;;;;;;;9.13;4.67;;;5.60;1.00;6.30;99925.00;;;;5020456;28;20558;-80
2022/01/10 00:15:32;;;;;;;9.00;4.90;;;5.70;1.00;6.30;99922.00;;;;5020949;28;20483;-80
2022/01/10 00:18:02;;;;;;;9.03;4.93;;;5.70;1.00;6.30;99924.00;;;;5037355;28;20580;-80
2022/01/10 00:20:30;;;;;;;7.03;4.20;;;5.90;1.00;6.50;67665.00;;;;5022638;28;20484;-79
2022/01/10 00:22:59;;;;;;;10.80;5.57;;;5.80;1.00;217.30;159453.00;;;;5027267;28;20458;-80
2022/01/10 00:25:27;;;;;;;8.50;5.03;;;5.80;1.00;6.50;67688.00;;;;5031479;28;20457;-81
2022/01/10 00:27:56;;;;;;;10.50;4.67;;;5.90;1.00;6.50;99935.00;;;;5028928;28;20460;-81
2022/01/10 00:30:26;;;;;;;7.23;4.27;;;5.90;1.00;6.50;99928.00;;;;5023641;28;21151;-79
2022/01/10 00:32:55;;;;;;;11.67;4.90;;;5.90;1.00;6.50;67693.00;;;;5027169;28;20457;-81
2022/01/10 00:35:25;;;;;;;11.27;4.60;;;5.90;1.00;6.50;67687.00;;;;5030738;28;20457;-82
2022/01/10 00:37:53;;;;;;;9.83;5.00;;;5.80;1.00;6.40;99950.00;;;;5034754;28;20484;-82
2022/01/10 00:40:22;;;;;;;10.03;4.90;;;5.80;1.00;6.50;99954.00;;;;5027954;28;20582;-82
2022/01/10 00:42:55;;;;;;;10.00;5.93;;;6.00;1.00;6.40;99959.00;;;;5026277;28;20452;-81
2022/01/10 00:45:27;;;;;;;11.57;7.17;;;5.80;1.00;6.40;67679.00;;;;5025644;28;20880;-81
2022/01/10 00:47:58;;;;;;;12.80;5.80;;;5.80;1.00;6.40;99967.00;;;;5037915;28;20468;-80
2022/01/10 00:50:30;;;;;;;10.90;5.60;;;5.80;1.00;6.50;67688.00;;;;5023606;28;20473;-80
2022/01/10 00:53:00;;;;;;;9.33;5.20;;;5.90;1.00;6.50;99970.00;;;;5036416;28;21001;-80
2022/01/10 00:55:29;;;;;;;8.03;5.30;;;5.90;1.00;6.50;99792.00;;;;5020673;28;20459;-83
2022/01/10 00:57:59;;;;;;;12.17;5.17;;;5.90;1.00;6.50;67690.00;;;;5039292;28;20441;-79
2022/01/10 01:00:27;;;;;;;7.13;4.30;;;5.90;1.00;6.50;99993.00;;;;5020298;28;20469;-81
2022/01/10 01:02:58;;;;;;;7.70;4.87;;;5.90;1.00;6.50;99993.00;;;;5052246;28;20459;-82
2022/01/10 01:05:30;;;;;;;9.83;4.73;;;5.80;1.00;6.50;67693.00;;;;5038109;28;20421;-80
2022/01/10 01:08:01;;;;;;;7.00;5.03;;;5.90;1.00;6.50;99996.00;;;;5045672;28;20460;-80
2022/01/10 01:13:25;;;;;;;9.63;4.70;;;5.90;1.00;6.50;99998.00;;;;5025524;28;20449;-80
2022/01/10 01:16:13;;;;;;;11.30;4.90;;;5.90;1.00;6.50;100011.00;;;;5026455;28;20460;-81
2022/01/10 01:24:18;;;;;;;8.70;4.80;;;5.90;1.00;6.40;100017.00;;;;5023071;28;20452;-81
2022/01/10 01:26:50;;;;;;;8.37;4.90;;;5.70;1.00;6.40;67677.00;;;;5023911;28;21056;-80
2022/01/10 01:29:22;;;;;;;9.60;5.60;;;5.80;1.00;6.40;100020.00;;;;5026001;28;20458;-80
2022/01/10 01:31:51;;;;;;;8.33;4.97;;;5.80;1.00;217.30;159472.00;;;;5036770;28;20474;-81
2022/01/10 01:34:21;;;;;;;10.93;5.30;;;5.80;1.00;6.50;100024.00;;;;5043054;28;20445;-80
2022/01/10 01:36:54;;;;;;;10.30;5.80;;;5.90;1.00;6.40;100043.00;;;;5051797;28;20480;-81
2022/01/10 01:39:28;;;;;;;11.03;5.73;;;5.90;1.00;6.40;100045.00;;;;5043190;28;20440;-80
2022/01/10 01:42:05;;;;;;;8.70;5.50;;;5.80;1.00;6.40;100044.00;;;;5049164;28;20464;-82
2022/01/10 01:44:35;;;;;;;9.90;5.23;;;5.70;1.00;6.40;100053.00;;;;5059698;28;20453;-80
2022/01/10 01:47:05;;;;;;;11.97;5.83;;;5.50;1.00;6.30;100050.00;;;;5051435;28;20456;-80
2022/01/10 01:49:34;;;;;;;9.97;6.40;;;5.80;1.00;6.30;67648.00;;;;5028818;28;20456;-81
2022/01/10 01:52:04;;;;;;;10.60;6.47;;;5.60;1.00;6.30;67651.00;;;;5026948;28;20463;-81
2022/01/10 01:54:33;;;;;;;10.60;7.07;;;5.60;1.00;6.30;67648.00;;;;5032126;28;20454;-81
2022/01/10 01:57:01;;;;;;;11.10;7.50;;;5.50;1.00;6.30;67644.00;;;;5041138;28;20569;-81
2022/01/10 01:59:30;;;;;;;12.37;6.00;;;5.50;1.00;6.20;67626.00;;;;5025385;28;20460;-81
2022/01/10 02:01:59;;;;;;;10.83;6.80;;;5.40;1.00;6.10;67614.00;;;;5024469;28;20450;-80
2022/01/10 02:04:27;;;;;;;12.43;7.40;;;5.30;1.00;6.10;67606.00;;;;5027272;28;20544;-82
2022/01/10 02:06:58;;;;;;;8.40;6.47;;;5.50;1.00;6.10;67601.00;;;;5030572;28;20569;-84
2022/01/10 02:09:28;;;;;;;14.17;6.47;;;5.30;1.00;6.10;100097.00;;;;5025598;28;21358;-83
2022/01/10 02:11:58;;;;;;;11.77;7.10;;;5.30;1.00;6.10;67601.00;;;;5034882;28;20450;-82
2022/01/10 02:14:26;;;;;;;14.53;6.40;;;5.30;1.00;6.10;67603.00;;;;5039759;28;20467;-81
2022/01/10 02:16:56;;;;;;;9.30;6.70;;;5.40;1.00;6.10;100099.00;;;;5025578;28;20561;-82
2022/01/10 02:19:38;;;;;;;11.33;8.47;;;5.30;1.00;6.00;100111.00;;;;5028440;28;20469;-79
2022/01/10 02:22:08;;;;;;;12.27;8.30;;;5.20;1.00;6.00;100104.00;;;;5019898;28;20542;-80
2022/01/10 02:24:49;;;;;;;12.63;8.30;;;5.30;1.00;6.00;100103.00;;;;5023642;28;20564;-80
2022/01/10 02:27:21;;;;;;;14.27;9.83;;;5.20;1.00;6.00;100102.00;;;;5034783;28;20807;-80
2022/01/10 02:29:50;;;;;;;13.80;9.17;;;5.10;1.00;6.00;100111.00;;;;5023314;28;20457;-80
2022/01/10 02:32:20;;;;;;;17.70;11.83;;;5.20;1.00;52.70;159248.00;;;;5031479;28;20456;-80
2022/01/10 02:34:49;;;;;;;19.90;11.50;;;5.20;1.00;6.00;100119.00;;;;5015485;28;20460;-79
2022/01/10 02:37:33;;;;;;;12.00;9.70;;;5.30;1.00;6.10;67595.00;;;;5026063;28;20473;-81
2022/01/10 02:40:06;;;;;;;17.50;11.53;;;5.30;1.00;6.00;100125.00;;;;5024447;28;20553;-79
2022/01/10 02:42:36;;;;;;;17.77;12.67;;;5.30;1.00;6.00;100135.00;;;;5027668;28;20445;-80
2022/01/10 02:45:06;;;;;;;35.97;18.97;;;5.10;1.00;6.00;100146.00;;;;5019612;28;20452;-80
2022/01/10 02:47:35;;;;;;;51.27;24.20;;;5.10;1.00;6.00;100137.00;;;;5022465;28;20457;-81
2022/01/10 02:50:05;;;;;;;78.77;35.47;;;5.10;1.00;6.00;100159.00;;;;5022154;28;21049;-80
2022/01/10 02:52:35;;;;;;;129.97;49.50;;;5.30;1.00;6.00;100161.00;;;;5020782;28;20468;-79
2022/01/10 02:55:06;;;;;;;84.80;38.77;;;5.30;1.00;6.00;100161.00;;;;5034509;28;20463;-80
2022/01/10 02:57:35;;;;;;;36.57;19.87;;;5.20;1.00;6.00;100174.00;;;;5037390;28;20482;-80
2022/01/10 03:00:09;;;;;;;57.70;28.10;;;5.30;1.00;6.00;100172.00;;;;5032075;28;20509;-79
2022/01/10 03:02:38;;;;;;;56.93;29.90;;;5.20;1.00;6.10;100188.00;;;;5029899;28;20458;-79
2022/01/10 03:05:08;;;;;;;29.87;15.13;;;5.10;1.00;6.10;100184.00;;;;5036937;28;20511;-80
2022/01/10 03:07:39;;;;;;;23.50;13.83;;;5.20;1.00;6.10;100178.00;;;;5016988;28;20460;-80
2022/01/10 03:10:08;;;;;;;23.93;14.53;;;5.30;1.00;217.30;159337.00;;;;5013926;28;20493;-80
2022/01/10 03:12:37;;;;;;;19.23;10.63;;;5.40;1.00;6.20;100193.00;;;;5017583;28;20457;-79
2022/01/10 03:15:09;;;;;;;13.40;8.97;;;5.40;1.00;6.30;100206.00;;;;5031020;28;20457;-80
2022/01/10 03:17:39;;;;;;;14.23;9.03;;;5.50;1.00;6.30;100209.00;;;;5031654;28;20514;-79
2022/01/10 03:20:10;;;;;;;14.97;9.27;;;5.60;1.00;6.30;100200.00;;;;5019688;28;20497;-79
2022/01/10 03:22:40;;;;;;;13.53;9.97;;;5.50;1.00;6.30;100211.00;;;;5041066;28;20453;-79
2022/01/10 03:25:09;;;;;;;14.77;10.17;;;5.60;1.00;6.30;100214.00;;;;5047838;28;20452;-79
2022/01/10 03:27:39;;;;;;;13.80;10.73;;;5.50;1.00;6.30;100206.00;;;;5025229;28;20464;-79
2022/01/10 03:30:10;;;;;;;12.33;9.90;;;5.40;1.00;6.30;100212.00;;;;5024105;28;20483;-79
2022/01/10 03:32:41;;;;;;;15.20;10.13;;;5.50;1.00;6.30;100224.00;;;;5031353;28;21337;-78
2022/01/10 03:35:23;;;;;;;19.57;11.53;;;5.40;1.00;6.30;100227.00;;;;5026429;28;20453;-79
2022/01/10 03:37:53;;;;;;;17.77;13.00;;;5.40;1.00;6.30;67640.00;;;;5038250;28;20476;-79
2022/01/10 03:40:24;;;;;;;17.20;10.30;;;5.40;1.00;6.20;100211.00;;;;5061251;28;20476;-79
2022/01/10 03:42:54;;;;;;;17.27;12.03;;;5.30;1.00;6.20;100229.00;;;;5056373;28;20479;-78
2022/01/10 03:45:23;;;;;;;18.63;13.17;;;5.30;1.00;6.10;100219.00;;;;5033739;28;21146;-79
2022/01/10 03:47:51;;;;;;;15.50;11.80;;;5.30;1.00;6.10;100226.00;;;;5032410;28;20484;-78
2022/01/10 03:50:19;;;;;;;18.07;10.97;;;5.40;1.00;6.00;100222.00;;;;5042016;28;20493;-77
2022/01/10 03:52:48;;;;;;;14.57;10.43;;;5.30;1.00;5.90;67554.00;;;;5025322;28;20856;-78
2022/01/10 03:55:17;;;;;;;16.47;10.80;;;5.40;1.00;217.30;159119.00;;;;5027602;28;20464;-78
2022/01/10 03:57:46;;;;;;;15.90;11.70;;;4.90;1.00;5.50;67479.00;;;;5049937;28;20552;-78
2022/01/10 04:00:16;;;;;;;17.30;11.47;;;5.00;1.00;5.40;100246.00;;;;5025920;28;20990;-78
2022/01/10 04:02:51;;;;;;;24.03;11.17;;;4.60;1.00;5.30;100256.00;;;;5027577;28;20488;-80
2022/01/10 04:05:25;;;;;;;19.00;13.60;;;4.50;1.00;5.20;100250.00;;;;5033955;28;20545;-80
2022/01/10 04:07:53;;;;;;;19.83;13.57;;;4.30;1.00;217.30;158848.00;;;;5027955;28;20452;-79
2022/01/10 04:10:24;;;;;;;22.10;13.30;;;4.20;1.00;5.00;100252.00;;;;5030894;28;20472;-80
2022/01/10 04:12:53;;;;;;;16.77;10.60;;;4.10;1.00;5.10;100252.00;;;;5034185;28;20473;-78
2022/01/10 04:15:21;;;;;;;16.33;10.30;;;4.30;1.00;5.00;100267.00;;;;5025888;28;20481;-79
2022/01/10 04:17:55;;;;;;;15.80;11.77;;;4.20;1.00;5.00;100268.00;;;;5033000;28;20481;-80
2022/01/10 04:20:24;;;;;;;16.90;11.50;;;4.20;1.00;5.00;100284.00;;;;5032270;28;20498;-80
2022/01/10 04:22:53;;;;;;;15.07;11.97;;;4.10;1.00;5.00;100275.00;;;;5027389;28;20465;-80
2022/01/10 04:25:24;;;;;;;13.27;10.47;;;4.10;1.00;4.90;67348.00;;;;5040736;28;20460;-80
2022/01/10 04:27:53;;;;;;;12.63;9.57;;;4.00;1.00;4.90;100283.00;;;;5037002;28;20548;-80
2022/01/10 04:30:27;;;;;;;20.10;10.57;;;4.00;1.00;5.00;100283.00;;;;5044141;28;20503;-80
2022/01/10 04:32:59;;;;;;;15.87;10.00;;;4.10;1.00;5.00;100289.00;;;;5036960;28;20461;-79
2022/01/10 04:35:28;;;;;;;15.80;11.20;;;4.20;1.00;5.00;100292.00;;;;5028873;28;20456;-80
2022/01/10 04:37:57;;;;;;;19.30;10.30;;;4.10;1.00;5.00;67365.00;;;;5034288;28;21108;-79
2022/01/10 04:40:27;;;;;;;15.10;10.80;;;4.20;1.00;5.10;100288.00;;;;5029280;28;20504;-80
2022/01/10 04:42:56;;;;;;;15.70;10.40;;;4.30;1.00;5.20;67399.00;;;;5048008;28;20454;-80
2022/01/10 04:45:25;;;;;;;18.90;10.30;;;4.30;1.00;5.10;67399.00;;;;5024788;28;20463;-80
2022/01/10 04:47:55;;;;;;;14.50;9.67;;;4.30;1.00;217.30;158816.00;;;;5034673;28;20491;-80
2022/01/10 04:51:02;;;;;;;16.47;11.50;;;4.30;1.00;5.00;67368.00;;;;5043782;28;20497;-81
2022/01/10 04:53:28;;;;;;;14.90;10.13;;;4.10;1.00;5.00;100333.00;;;;5029122;28;20496;-79
2022/01/10 04:55:58;;;;;;;15.27;10.60;;;3.90;1.00;217.30;158806.00;;;;5036470;28;20458;-79
2022/01/10 04:58:26;;;;;;;16.73;10.87;;;4.00;1.00;5.00;100340.00;;;;5021884;28;20500;-80
2022/01/10 05:00:55;;;;;;;15.60;10.37;;;3.90;1.00;5.00;100334.00;;;;5023422;28;20901;-80
2022/01/10 05:03:26;;;;;;;15.40;10.43;;;4.00;1.00;5.00;100319.00;;;;5024726;28;20446;-79
2022/01/10 05:05:56;;;;;;;14.43;10.37;;;4.00;1.00;5.00;100346.00;;;;5027636;28;20478;-79
2022/01/10 05:08:26;;;;;;;14.93;10.17;;;3.90;1.00;4.90;100347.00;;;;5037910;28;20516;-79
2022/01/10 05:10:56;;;;;;;17.57;10.73;;;4.00;1.00;4.90;67348.00;;;;5056027;28;20468;-79
2022/01/10 05:13:25;;;;;;;17.97;10.80;;;4.00;1.00;4.90;100344.00;;;;5045597;28;20445;-80
2022/01/10 05:15:55;;;;;;;12.23;9.80;;;4.10;1.00;4.90;99982.00;;;;5062874;28;20461;-79
2022/01/10 05:18:24;;;;;;;13.93;10.40;;;4.10;1.00;5.00;100362.00;;;;5045763;28;20575;-80
2022/01/10 05:20:54;;;;;;;15.37;10.90;;;4.10;1.00;5.00;100364.00;;;;5068438;28;20465;-80
2022/01/10 05:23:22;;;;;;;14.93;10.93;;;4.10;1.00;5.00;67371.00;;;;5041276;28;20520;-80
2022/01/10 05:25:50;;;;;;;16.40;10.70;;;4.20;1.00;5.10;67384.00;;;;5053847;28;21014;-80
2022/01/10 05:28:19;;;;;;;13.90;9.50;;;4.30;1.00;5.10;67390.00;;;;5031393;28;20467;-80
2022/01/10 05:30:52;;;;;;;14.30;9.93;;;4.50;1.00;217.30;158858.00;;;;5020844;28;20799;-80
2022/01/10 05:33:24;;;;;;;16.20;11.20;;;4.20;1.00;5.10;67393.00;;;;5032335;28;20457;-81
2022/01/10 05:35:53;;;;;;;12.53;9.77;;;4.20;1.00;5.10;67395.00;;;;5016455;28;20491;-80
2022/01/10 05:38:21;;;;;;;12.50;9.40;;;4.20;1.00;5.20;100403.00;;;;5020819;28;20481;-80
2022/01/10 05:40:49;;;;;;;12.87;10.10;;;4.30;1.00;5.20;100402.00;;;;5024196;28;20520;-80
2022/01/10 05:43:18;;;;;;;24.50;19.90;;;4.40;1.00;5.20;100421.00;;;;5023674;28;20449;-80
2022/01/10 05:45:50;;;;;;;23.23;18.90;;;4.40;1.00;5.20;100426.00;;;;5031117;28;20453;-80
2022/01/10 05:48:25;;;;;;;20.90;13.20;;;4.50;1.00;5.20;100421.00;;;;5019101;28;20483;-80
2022/01/10 05:50:58;;;;;;;17.93;12.17;;;4.20;1.00;5.10;100424.00;;;;5032436;28;20514;-80
2022/01/10 05:53:27;;;;;;;14.70;12.33;;;4.30;1.00;5.10;100428.00;;;;5022816;28;20536;-80
2022/01/10 05:55:56;;;;;;;18.60;12.33;;;4.20;1.00;52.70;158867.00;;;;5034667;28;20445;-81
2022/01/10 05:58:26;;;;;;;17.87;12.77;;;4.40;1.00;5.10;100439.00;;;;5035554;28;20464;-81
2022/01/10 06:00:55;;;;;;;16.33;11.33;;;4.30;1.00;5.10;67382.00;;;;5051122;28;20470;-81
2022/01/10 06:03:24;;;;;;;21.83;12.40;;;4.40;1.00;5.00;100449.00;;;;5024208;28;20457;-80
2022/01/10 06:06:00;;;;;;;17.70;11.63;;;4.30;1.00;5.00;67362.00;;;;5020204;28;20467;-80
2022/01/10 06:08:28;;;;;;;15.07;12.13;;;4.20;1.00;4.90;100462.00;;;;5020791;28;20453;-80
2022/01/10 06:10:57;;;;;;;17.47;12.00;;;4.20;1.00;4.90;100457.00;;;;5040851;28;20481;-81
2022/01/10 06:13:36;;;;;;;23.07;11.93;;;4.10;1.00;4.80;100455.00;;;;5035346;28;20463;-81
2022/01/10 06:16:06;;;;;;;17.20;12.10;;;4.00;1.00;4.80;100474.00;;;;5026880;28;20455;-82
2022/01/10 06:18:46;;;;;;;20.97;13.47;;;4.00;1.00;4.80;100472.00;;;;5029277;28;20538;-83
2022/01/10 06:21:14;;;;;;;18.50;13.40;;;3.90;1.00;4.70;100472.00;;;;5023182;28;20514;-80
2022/01/10 06:23:43;;;;;;;24.03;15.20;;;3.90;1.00;4.60;100494.00;;;;5025857;28;20449;-81
2022/01/10 06:26:11;;;;;;;18.93;15.50;;;3.80;1.00;4.60;100499.00;;;;5032462;28;20557;-81
2022/01/10 06:28:40;;;;;;;21.13;14.73;;;3.50;1.00;4.50;100504.00;;;;5017184;28;20446;-80
2022/01/10 06:31:13;;;;;;;20.57;14.00;;;3.40;1.00;4.50;100514.00;;;;5036793;28;20560;-79
2022/01/10 06:33:50;;;;;;;19.40;13.00;;;3.50;1.00;4.50;100524.00;;;;5016487;28;20474;-80
2022/01/10 06:36:19;;;;;;;15.07;12.37;;;3.70;1.00;4.60;100520.00;;;;5014609;28;20519;-80
2022/01/10 06:38:49;;;;;;;15.80;12.63;;;3.70;1.00;217.30;158667.00;;;;5017160;28;20458;-80
2022/01/10 06:41:19;;;;;;;22.00;14.13;;;3.80;1.00;4.60;100527.00;;;;5030185;28;20492;-80
2022/01/10 06:43:48;;;;;;;21.27;15.00;;;3.80;1.00;217.30;158643.00;;;;5042974;28;20472;-79
2022/01/10 06:46:20;;;;;;;19.13;14.67;;;3.60;1.00;217.30;158620.00;;;;5031866;28;20459;-79
2022/01/10 06:48:48;;;;;;;20.13;14.93;;;3.60;1.00;4.50;67252.00;;;;5027748;28;20481;-81
2022/01/10 06:51:20;;;;;;;24.00;16.13;;;3.60;1.00;4.50;67258.00;;;;5044567;28;20483;-80
2022/01/10 06:53:51;;;;;;;18.80;15.03;;;3.70;1.00;4.60;67263.00;;;;5048376;28;20448;-80
2022/01/10 06:56:20;;;;;;;19.30;15.73;;;3.60;1.00;4.60;67275.00;;;;5028013;28;20449;-80
2022/01/10 06:58:48;;;;;;;15.17;13.13;;;3.50;1.00;4.70;67281.00;;;;5034540;28;20455;-82
2022/01/10 07:01:26;;;;;;;19.50;14.23;;;3.70;1.00;4.70;67288.00;;;;5052830;28;20535;-81
2022/01/10 07:03:57;;;;;;;19.20;15.27;;;3.60;1.00;4.70;67300.00;;;;5034219;28;20449;-80
2022/01/10 07:06:25;;;;;;;21.80;15.73;;;3.80;1.00;4.70;67293.00;;;;5017780;28;21368;-79
2022/01/10 07:08:56;;;;;;;21.33;15.90;;;3.70;1.00;4.70;100583.00;;;;5018089;28;20485;-80
2022/01/10 07:11:37;;;;;;;23.17;16.33;;;3.80;1.00;4.70;67293.00;;;;5038127;28;20469;-79
2022/01/10 07:14:05;;;;;;;23.50;17.50;;;3.80;1.00;4.70;67292.00;;;;5011879;28;20489;-79
2022/01/10 07:16:36;;;;;;;24.90;18.57;;;3.80;1.00;4.60;67281.00;;;;5013915;28;20465;-79
2022/01/10 07:19:06;;;;;;;25.17;19.07;;;3.80;1.00;4.50;100609.00;;;;5032789;28;20471;-79
2022/01/10 07:21:39;;;;;;;20.53;15.13;;;3.80;1.00;4.40;100618.00;;;;5016639;28;20478;-79
2022/01/10 07:24:10;;;;;;;22.03;15.23;;;3.40;1.00;4.30;67210.00;;;;5018773;28;20465;-79
2022/01/10 07:26:38;;;;;;;25.53;16.13;;;3.30;1.00;4.30;67203.00;;;;5017713;28;21112;-79
2022/01/10 07:29:08;;;;;;;21.23;15.83;;;3.30;1.00;4.30;100627.00;;;;5017662;28;20449;-79
2022/01/10 07:31:38;;;;;;;21.63;15.40;;;3.20;1.00;4.30;67212.00;;;;5018063;28;20485;-80
2022/01/10 07:34:10;;;;;;;22.47;15.50;;;3.30;1.00;4.40;100641.00;;;;5017000;28;20969;-80
2022/01/10 07:36:38;;;;;;;17.23;13.07;;;3.40;1.00;4.40;100641.00;;;;5021201;28;20463;-80
2022/01/10 07:39:07;;;;;;;20.90;15.53;;;3.50;1.00;4.50;67217.00;;;;5017381;28;20453;-80
2022/01/10 07:41:35;;;;;;;19.23;15.20;;;3.60;1.00;4.50;67252.00;;;;5016284;28;20473;-79
2022/01/10 07:44:08;;;;;;;21.83;17.00;;;3.50;1.00;217.30;158634.00;;;;5015590;28;20468;-80
2022/01/10 07:46:38;;;;;;;32.30;20.77;;;3.80;1.00;217.30;158624.00;;;;5032338;28;20980;-79
2022/01/10 07:49:06;;;;;;;36.03;23.53;;;3.70;1.00;4.60;67272.00;;;;5019278;28;20877;-79
2022/01/10 07:51:35;;;;;;;32.10;22.27;;;3.50;1.00;4.70;100668.00;;;;5017043;28;20850;-79
2022/01/10 07:54:04;;;;;;;28.63;21.10;;;3.70;1.00;4.70;100677.00;;;;5016765;28;20822;-79
2022/01/10 07:56:32;;;;;;;36.07;25.03;;;3.70;1.00;217.30;158711.00;;;;5018658;28;20453;-80
2022/01/10 07:59:00;;;;;;;28.97;20.90;;;3.60;1.00;217.30;158758.00;;;;5017190;28;20464;-80
2022/01/10 08:01:29;;;;;;;23.43;17.97;;;3.80;1.00;4.80;67311.00;;;;5020591;28;20496;-80
2022/01/10 08:03:59;;;;;;;25.23;17.93;;;3.70;1.00;4.70;100679.00;;;;5029081;28;20901;-80
2022/01/10 08:06:27;;;;;;;26.30;19.37;;;3.90;1.00;4.60;67275.00;;;;5033507;28;20441;-80
2022/01/10 08:08:55;;;;;;;39.83;21.87;;;3.50;1.00;4.50;100697.00;;;;5057813;28;20532;-80
2022/01/10 08:11:26;;;;;;;28.13;19.50;;;3.50;1.00;4.40;67234.00;;;;5023653;28;20748;-80
2022/01/10 08:13:54;;;;;;;27.13;18.67;;;3.40;1.00;4.40;100698.00;;;;5020769;28;20478;-80
2022/01/10 08:16:23;;;;;;;28.90;18.70;;;3.40;1.00;4.30;100697.00;;;;5020417;28;21229;-80
2022/01/10 08:18:51;;;;;;;27.30;19.77;;;3.30;1.00;4.30;100718.00;;;;5024099;28;20515;-80
2022/01/10 08:21:21;;;;;;;27.00;19.03;;;3.10;1.00;52.70;158493.00;;;;5020499;28;20542;-80
2022/01/10 08:23:49;;;;;;;24.23;17.67;;;3.20;1.00;4.20;67185.00;;;;5023862;28;20452;-80
2022/01/10 08:26:18;;;;;;;24.30;16.87;;;3.20;1.00;4.20;67197.00;;;;5023693;28;20545;-81
2022/01/10 08:28:46;;;;;;;23.30;16.60;;;3.20;1.00;4.40;67239.00;;;;5021950;28;20543;-80
2022/01/10 08:31:14;;;;;;;21.23;14.63;;;3.40;1.00;4.60;67264.00;;;;5020683;28;20486;-79
2022/01/10 08:33:45;;;;;;;21.03;14.73;;;3.60;1.00;4.60;67272.00;;;;5021537;28;20458;-79
2022/01/10 08:36:14;;;;;;;25.83;15.07;;;3.70;1.00;4.70;100763.00;;;;5020815;28;20461;-80
2022/01/10 08:38:44;;;;;;;22.93;14.60;;;3.70;1.00;4.80;67302.00;;;;5021669;28;20453;-79
2022/01/10 08:41:12;;;;;;;24.10;16.00;;;3.70;1.00;4.80;67319.00;;;;5020632;28;20472;-80
2022/01/10 08:43:40;;;;;;;23.00;15.10;;;3.70;1.00;4.90;100754.00;;;;5025959;28;20631;-81
2022/01/10 08:46:09;;;;;;;22.70;16.10;;;3.80;1.00;5.00;67357.00;;;;5033581;28;20831;-81
2022/01/10 08:48:50;;;;;;;25.43;16.27;;;3.90;1.00;5.10;100769.00;;;;5024741;28;20463;-80
2022/01/10 08:51:18;;;;;;;21.10;15.53;;;4.00;1.00;5.10;100766.00;;;;5023573;28;20480;-79
2022/01/10 08:53:48;;;;;;;19.50;14.60;;;4.20;1.00;5.20;100767.00;;;;5020733;28;20456;-80
2022/01/10 08:56:17;;;;;;;19.47;15.03;;;4.10;1.00;5.40;100781.00;;;;5023437;28;20984;-79
2022/01/10 08:58:45;;;;;;;20.80;15.47;;;4.20;1.00;5.40;67460.00;;;;5030369;28;21085;-81
2022/01/10 09:01:13;;;;;;;22.77;16.07;;;4.40;1.00;217.30;159066.00;;;;5031782;28;20517;-81
2022/01/10 09:03:42;;;;;;;20.13;14.70;;;4.50;1.00;5.70;67515.00;;;;5035169;28;20458;-80
2022/01/10 09:06:10;;;;;;;20.30;13.77;;;4.70;1.00;52.70;159123.00;;;;5030430;28;20453;-80
2022/01/10 09:08:41;;;;;;;18.70;15.30;;;4.90;1.00;5.90;67566.00;;;;5022434;28;20461;-81
2022/01/10 09:11:11;;;;;;;17.80;14.60;;;5.00;1.00;52.70;159222.00;;;;5027439;28;20505;-80
2022/01/10 09:13:40;;;;;;;18.37;14.73;;;5.00;1.00;217.30;159304.00;;;;5022966;28;20805;-80
2022/01/10 09:16:09;;;;;;;18.50;13.13;;;5.20;1.00;6.10;100809.00;;;;5021336;28;20885;-81
2022/01/10 09:18:38;;;;;;;19.47;15.10;;;5.20;1.00;217.30;159325.00;;;;5020440;28;20534;-80
2022/01/10 09:21:07;;;;;;;15.27;13.17;;;5.30;1.00;217.30;159373.00;;;;5022238;28;20484;-80
2022/01/10 09:23:36;;;;;;;16.23;12.53;;;5.30;1.00;6.30;67638.00;;;;5030183;28;20624;-78
2022/01/10 09:26:04;;;;;;;24.30;14.80;;;5.40;1.00;6.30;100830.00;;;;5020732;28;20465;-80
2022/01/10 09:28:34;;;;;;;20.30;14.27;;;5.40;1.00;217.30;159373.00;;;;5020872;28;20457;-79
2022/01/10 09:31:03;;;;;;;20.03;14.73;;;5.40;1.00;6.40;100844.00;;;;5021208;28;20499;-80
2022/01/10 09:33:31;;;;;;;21.50;14.57;;;5.70;1.00;6.50;67679.00;;;;5020279;28;20449;-80
2022/01/10 09:36:00;;;;;;;22.87;16.10;;;5.70;1.00;6.50;100865.00;;;;5025188;28;20446;-79
2022/01/10 09:38:28;;;;;;;17.37;14.03;;;5.90;1.00;6.50;67705.00;;;;5018779;28;20454;-80
2022/01/10 09:40:57;;;;;;;18.00;14.40;;;5.80;1.00;6.60;67729.00;;;;5018979;28;20496;-79
2022/01/10 09:43:25;;;;;;;17.87;13.23;;;6.00;1.00;6.70;67748.00;;;;5018894;28;20445;-79
2022/01/10 09:45:56;;;;;;;17.37;13.10;;;6.10;1.00;6.70;100880.00;;;;5025561;28;20453;-78
2022/01/10 09:48:25;;;;;;;17.93;13.73;;;6.00;1.00;6.80;100878.00;;;;5026543;28;20530;-79
2022/01/10 09:51:13;;;;;;;20.13;13.73;;;6.30;1.00;6.80;100883.00;;;;5030162;28;20507;-79
2022/01/10 09:53:42;;;;;;;20.40;14.20;;;6.10;1.00;6.90;100888.00;;;;5025124;28;20935;-80
2022/01/10 09:56:11;;;;;;;16.87;15.07;;;6.20;1.00;6.90;67809.00;;;;5020053;28;20972;-79
2022/01/10 09:58:41;;;;;;;22.47;16.33;;;6.30;1.00;7.10;100890.00;;;;5020016;28;20457;-78
2022/01/10 10:01:16;;;;;;;18.53;15.37;;;6.40;1.00;7.10;100894.00;;;;5019608;28;20477;-79
2022/01/10 10:03:47;;;;;;;20.33;15.50;;;6.40;1.00;7.20;100882.00;;;;5017456;28;20448;-80
2022/01/10 10:06:17;;;;;;;20.97;15.33;;;6.50;1.00;7.20;100901.00;;;;5019951;28;20449;-81
2022/01/10 10:08:47;;;;;;;18.53;14.50;;;6.60;1.00;7.20;100906.00;;;;5021223;28;20481;-79
2022/01/10 10:11:16;;;;;;;17.53;15.60;;;6.70;1.00;7.20;100903.00;;;;5022471;28;20488;-79
2022/01/10 10:13:51;;;;;;;16.53;13.63;;;6.60;1.00;217.30;159813.00;;;;5030604;28;20438;-80
2022/01/10 10:16:21;;;;;;;18.97;14.67;;;6.50;1.00;7.30;100913.00;;;;5035479;28;20456;-80
2022/01/10 10:18:52;;;;;;;16.83;14.83;;;6.50;1.00;7.40;67900.00;;;;5033008;28;20469;-80
2022/01/10 10:21:21;;;;;;;23.57;16.70;;;6.60;1.00;7.40;67881.00;;;;5019872;28;20484;-79
2022/01/10 10:23:50;;;;;;;20.70;14.60;;;6.50;1.00;7.40;67914.00;;;;5016606;28;20536;-79
2022/01/10 10:26:24;;;;;;;18.27;13.90;;;6.70;1.00;7.60;100919.00;;;;5023307;28;20549;-79
2022/01/10 10:28:54;;;;;;;16.30;14.60;;;6.80;1.00;7.60;100934.00;;;;5020446;28;20552;-81
2022/01/10 10:31:29;;;;;;;20.40;14.00;;;6.90;1.00;7.70;67968.00;;;;5031103;28;20507;-80
2022/01/10 10:34:02;;;;;;;18.80;14.33;;;7.10;1.00;7.70;67971.00;;;;5027680;28;21127;-80
2022/01/10 10:36:33;;;;;;;18.10;14.97;;;7.20;1.00;7.80;100925.00;;;;5029221;28;20461;-78
2022/01/10 10:39:07;;;;;;;20.23;14.93;;;7.30;1.00;217.30;160087.00;;;;5035775;28;20475;-79
2022/01/10 10:41:36;;;;;;;20.60;16.20;;;7.40;1.00;8.00;100932.00;;;;5036546;28;20476;-78
2022/01/10 10:44:09;;;;;;;25.10;15.27;;;7.50;1.00;8.10;68048.00;;;;5035618;28;20470;-79
2022/01/10 10:46:41;;;;;;;22.60;14.23;;;7.50;1.00;8.20;100939.00;;;;5039611;28;20503;-79
2022/01/10 10:49:10;;;;;;;18.17;13.30;;;7.70;1.00;8.20;100944.00;;;;5023388;28;20449;-79
2022/01/10 10:51:38;;;;;;;17.60;13.53;;;7.70;1.00;8.30;68094.00;;;;5020669;28;20486;-80
2022/01/10 10:54:10;;;;;;;20.67;14.53;;;7.80;1.00;8.40;100946.00;;;;5017478;28;20452;-78
2022/01/10 10:56:42;;;;;;;19.90;14.67;;;7.90;1.00;8.60;100944.00;;;;5023287;28;20471;-80
2022/01/10 10:59:12;;;;;;;20.23;13.63;;;8.10;1.00;8.70;100951.00;;;;5023393;28;20462;-80
2022/01/10 11:01:43;;;;;;;21.00;12.87;;;8.10;1.00;8.60;100952.00;;;;5025328;28;20499;-79
2022/01/10 11:04:12;;;;;;;15.63;12.07;;;8.00;1.00;8.60;100963.00;;;;5017453;28;20449;-79
2022/01/10 11:06:41;;;;;;;16.63;13.10;;;8.00;1.00;8.60;68160.00;;;;5017295;28;20984;-79
2022/01/10 11:09:12;;;;;;;16.33;12.17;;;8.00;1.00;8.40;68135.00;;;;5017487;28;20540;-79
2022/01/10 11:11:42;;;;;;;19.37;13.00;;;8.00;1.00;8.30;100968.00;;;;5017524;28;20536;-79
2022/01/10 11:14:14;;;;;;;20.23;12.57;;;7.90;1.00;8.10;100973.00;;;;5015377;28;20540;-79
2022/01/10 11:16:46;;;;;;;16.97;13.23;;;7.50;1.00;8.00;100964.00;;;;5022010;28;21140;-79
2022/01/10 11:19:18;;;;;;;17.73;12.73;;;7.50;1.00;8.10;100973.00;;;;5021535;28;20456;-79